Time;durP1;ratioP1;P1;durP2;ratioP2;P2;SDS_P1;SDS_P2;PMS_P1;PMS_P2;Temp;Humidity;BMP_temperature;BMP_pressure;BME280_temperature;BME280_humidity;BME280_pressure;Samples;Min_cycle;Max_cycle;Signal;HPM_P1;HPM_P2
2023/06/16 00:01:34;;;;;;;;;;;;;;;29.35;25.62;98066.81;5056016;28;19948;-88
2023/06/16 00:04:03;;;;;;;;;;;;;;;29.39;26.04;98059.75;5055223;28;19975;-88
2023/06/16 00:06:29;;;;;;;;;;;;;;;29.55;25.41;98055.03;5053324;28;19920;-88
2023/06/16 00:08:56;;;;;;;;;;;;;;;29.76;25.17;98056.94;5040198;28;20007;-88
2023/06/16 00:11:23;;;;;;;;;;;;;;;29.40;25.95;98055.69;5051596;28;19921;-87
2023/06/16 00:13:50;;;;;;;;;;;;;;;29.06;26.62;98050.25;5056157;28;19921;-88
2023/06/16 00:16:19;;;;;;;;;;;;;;;28.81;27.06;98047.69;5056383;28;20011;-87
2023/06/16 00:18:52;;;;;;;;;;;;;;;29.14;26.60;98053.56;5056686;28;19928;-87
2023/06/16 00:21:25;;;;;;;;;;;;;;;29.28;26.14;98050.94;5054249;28;19925;-87
2023/06/16 00:23:51;;;;;;;;;;;;;;;29.19;26.32;98047.31;5039910;28;19921;-87
2023/06/16 00:26:18;;;;;;;;;;;;;;;29.35;26.27;98047.03;5045908;28;19924;-87
2023/06/16 00:28:44;;;;;;;;;;;;;;;29.34;26.27;98049.06;5040093;28;20002;-88
2023/06/16 00:31:10;;;;;;;;;;;;;;;29.31;26.41;98047.16;5055682;28;20368;-89
2023/06/16 00:33:36;;;;;;;;;;;;;;;29.60;25.96;98046.69;5055845;28;20336;-88
2023/06/16 00:36:02;;;;;;;;;;;;;;;29.65;25.92;98046.06;5051431;28;19927;-88
2023/06/16 00:38:28;;;;;;;;;;;;;;;28.86;26.30;98040.63;5049737;28;19928;-88
2023/06/16 00:40:54;;;;;;;;;;;;;;;28.86;26.65;98038.59;5044948;28;19917;-88
2023/06/16 00:43:20;;;;;;;;;;;;;;;28.94;25.94;98042.69;5050428;28;19920;-87
2023/06/16 00:45:48;;;;;;;;;;;;;;;29.15;25.70;98038.94;5045630;28;20377;-87
2023/06/16 00:48:14;;;;;;;;;;;;;;;29.22;25.76;98038.69;5043364;28;19917;-87
2023/06/16 00:50:40;;;;;;;;;;;;;;;29.34;26.07;98037.75;5044475;28;19929;-87
2023/06/16 00:53:07;;;;;;;;;;;;;;;29.41;25.47;98045.91;5041874;28;20311;-87
2023/06/16 00:55:33;;;;;;;;;;;;;;;29.18;25.20;98038.06;5049273;28;19921;-87
2023/06/16 00:57:59;;;;;;;;;;;;;;;28.76;25.47;98039.81;5048356;28;20020;-88
2023/06/16 01:00:25;;;;;;;;;;;;;;;28.40;26.13;98042.50;5048784;28;19944;-87
2023/06/16 01:02:51;;;;;;;;;;;;;;;27.96;27.60;98031.28;5053972;28;20369;-87
2023/06/16 01:05:20;;;;;;;;;;;;;;;28.14;27.95;98041.91;5055223;28;19917;-87
2023/06/16 01:08:04;;;;;;;;;;;;;;;28.25;27.42;98039.47;5047845;28;20002;-87
2023/06/16 01:10:49;;;;;;;;;;;;;;;28.61;26.31;98033.22;5052905;28;19967;-88
2023/06/16 01:13:17;;;;;;;;;;;;;;;28.56;26.31;98030.97;5039212;28;19921;-88
2023/06/16 01:15:44;;;;;;;;;;;;;;;28.72;26.18;98030.72;5054186;28;20323;-87
2023/06/16 01:18:14;;;;;;;;;;;;;;;28.91;26.05;98025.91;5041300;28;19929;-88
2023/06/16 01:20:41;;;;;;;;;;;;;;;29.08;25.31;98025.13;5042494;28;19916;-88
2023/06/16 01:23:14;;;;;;;;;;;;;;;28.64;25.54;98020.94;5049365;28;20023;-88
2023/06/16 01:25:43;;;;;;;;;;;;;;;28.50;25.63;98013.03;5053858;28;19917;-88
2023/06/16 01:28:10;;;;;;;;;;;;;;;28.37;26.31;98018.00;5055079;28;19917;-88
2023/06/16 01:30:41;;;;;;;;;;;;;;;28.61;26.04;98016.25;5054287;28;19924;-88
2023/06/16 01:33:09;;;;;;;;;;;;;;;28.74;25.84;98020.53;5042895;28;19973;-88
2023/06/16 01:35:36;;;;;;;;;;;;;;;28.70;26.21;98021.94;5052688;28;20476;-88
2023/06/16 01:38:03;;;;;;;;;;;;;;;28.56;26.36;98011.19;5051495;28;19921;-89
2023/06/16 01:40:30;;;;;;;;;;;;;;;28.45;26.22;98022.13;5054439;28;20373;-88
2023/06/16 01:42:57;;;;;;;;;;;;;;;28.59;26.52;98027.25;5049647;28;19928;-88
2023/06/16 01:45:23;;;;;;;;;;;;;;;28.78;26.09;98031.66;5044954;28;20409;-89
2023/06/16 01:47:50;;;;;;;;;;;;;;;28.79;25.78;98033.25;5052732;28;19932;-88
2023/06/16 01:50:16;;;;;;;;;;;;;;;28.90;25.60;98029.97;5053991;28;19932;-89
2023/06/16 01:52:42;;;;;;;;;;;;;;;28.84;25.63;98029.81;5037983;28;19927;-89
2023/06/16 01:55:08;;;;;;;;;;;;;;;29.00;25.32;98028.72;5045223;28;20007;-88
2023/06/16 01:57:35;;;;;;;;;;;;;;;28.75;26.08;98026.97;5040807;28;19988;-88
2023/06/16 02:00:08;;;;;;;;;;;;;;;28.67;26.15;98034.94;5047565;28;20004;-89
2023/06/16 02:02:35;;;;;;;;;;;;;;;28.71;26.01;98032.75;5054058;28;20012;-88
2023/06/16 02:05:03;;;;;;;;;;;;;;;28.89;25.54;98022.75;5052347;28;20007;-88
2023/06/16 02:07:34;;;;;;;;;;;;;;;29.11;25.77;98023.41;5047856;28;19975;-88
2023/06/16 02:10:01;;;;;;;;;;;;;;;29.06;25.44;98024.81;5038257;28;20383;-88
2023/06/16 02:12:28;;;;;;;;;;;;;;;28.68;25.16;98013.91;5051864;28;20406;-89
2023/06/16 02:14:55;;;;;;;;;;;;;;;28.68;25.09;98008.25;5049459;28;19920;-89
2023/06/16 02:17:28;;;;;;;;;;;;;;;28.73;24.85;98016.13;5053415;28;20399;-89
2023/06/16 02:19:54;;;;;;;;;;;;;;;28.83;24.96;98013.31;5036423;28;20300;-88
2023/06/16 02:22:21;;;;;;;;;;;;;;;28.43;25.15;98013.31;5040938;28;20015;-89
2023/06/16 02:24:47;;;;;;;;;;;;;;;28.28;25.31;98004.66;5046537;28;19921;-89
2023/06/16 02:27:13;;;;;;;;;;;;;;;28.68;25.17;98007.47;5053690;28;20284;-89
2023/06/16 02:29:40;;;;;;;;;;;;;;;28.71;25.36;98009.34;5053176;28;20089;-89
2023/06/16 02:32:06;;;;;;;;;;;;;;;28.52;25.26;98004.91;5053958;28;19920;-89
2023/06/16 02:34:32;;;;;;;;;;;;;;;28.67;25.31;98000.25;5052650;28;19924;-89
2023/06/16 02:37:00;;;;;;;;;;;;;;;27.61;26.95;98000.81;5053659;28;20452;-89
2023/06/16 02:39:26;;;;;;;;;;;;;;;27.84;26.87;98005.97;5048664;28;19931;-89
2023/06/16 02:41:52;;;;;;;;;;;;;;;28.21;25.66;98006.97;5050066;28;19917;-89
2023/06/16 02:44:18;;;;;;;;;;;;;;;28.32;25.43;98004.50;5037780;28;19917;-89
2023/06/16 02:46:44;;;;;;;;;;;;;;;28.40;25.77;98002.97;5048756;28;19921;-89
2023/06/16 02:49:12;;;;;;;;;;;;;;;28.63;25.62;98008.09;5033832;28;20353;-88
2023/06/16 02:51:38;;;;;;;;;;;;;;;28.85;25.26;98002.31;5052405;28;19928;-90
2023/06/16 02:54:04;;;;;;;;;;;;;;;29.09;24.94;98012.56;5053648;28;19919;-90
2023/06/16 02:56:30;;;;;;;;;;;;;;;28.97;24.72;98013.50;5052375;28;20304;-90
2023/06/16 02:58:57;;;;;;;;;;;;;;;28.67;24.97;98020.03;5048818;28;19917;-90
2023/06/16 03:01:24;;;;;;;;;;;;;;;28.53;24.93;98015.72;5039925;28;19921;-90
2023/06/16 03:03:52;;;;;;;;;;;;;;;28.40;25.20;98006.56;5050942;28;20411;-89
2023/06/16 03:06:19;;;;;;;;;;;;;;;28.40;25.66;98012.22;5045698;28;19982;-89
2023/06/16 03:08:45;;;;;;;;;;;;;;;28.60;25.26;98000.53;5053432;28;20406;-89
2023/06/16 03:11:11;;;;;;;;;;;;;;;28.65;25.43;98016.88;5051502;28;19921;-90
2023/06/16 03:13:37;;;;;;;;;;;;;;;28.71;25.71;98015.78;5051756;28;19921;-90
2023/06/16 03:16:04;;;;;;;;;;;;;;;28.75;25.27;98018.50;5047662;28;19936;-89
2023/06/16 03:18:30;;;;;;;;;;;;;;;28.84;25.25;98017.72;5033462;28;19924;-90
2023/06/16 03:20:55;;;;;;;;;;;;;;;28.91;25.42;98020.25;5041495;28;19924;-90
2023/06/16 03:23:21;;;;;;;;;;;;;;;29.06;25.34;98019.16;5053520;28;19968;-90
2023/06/16 03:25:48;;;;;;;;;;;;;;;29.03;24.86;98028.59;5053610;28;20023;-90
2023/06/16 03:28:14;;;;;;;;;;;;;;;29.07;24.90;98019.94;5053579;28;19948;-90
2023/06/16 03:30:40;;;;;;;;;;;;;;;29.06;24.83;98021.19;5048247;28;19920;-90
2023/06/16 03:33:06;;;;;;;;;;;;;;;28.82;25.32;98026.66;5047436;28;20383;-90
2023/06/16 03:35:32;;;;;;;;;;;;;;;29.11;25.22;98026.22;5035134;28;19921;-91
2023/06/16 03:37:58;;;;;;;;;;;;;;;29.26;25.00;98025.19;5045909;28;19921;-90
2023/06/16 03:40:24;;;;;;;;;;;;;;;29.31;25.53;98024.53;5040810;28;19921;-91
2023/06/16 03:42:51;;;;;;;;;;;;;;;29.45;25.46;98028.81;5035020;28;19929;-90
2023/06/16 03:45:17;;;;;;;;;;;;;;;29.74;25.64;98029.06;5035050;28;19928;-90
2023/06/16 03:47:43;;;;;;;;;;;;;;;29.94;24.94;98022.94;5041583;28;19921;-89
2023/06/16 03:50:09;;;;;;;;;;;;;;;29.68;25.78;98019.66;5048108;28;20388;-90
2023/06/16 03:52:35;;;;;;;;;;;;;;;29.94;25.42;98032.19;5052483;28;20295;-90
2023/06/16 03:55:01;;;;;;;;;;;;;;;30.16;25.31;98026.31;5040959;28;19921;-90
2023/06/16 03:57:27;;;;;;;;;;;;;;;30.23;25.00;98030.88;5048141;28;19948;-90
2023/06/16 03:59:53;;;;;;;;;;;;;;;30.08;25.46;98023.03;5051504;28;19933;-91
2023/06/16 04:02:19;;;;;;;;;;;;;;;30.19;25.68;98027.44;5052897;28;20356;-90
2023/06/16 04:04:47;;;;;;;;;;;;;;;30.21;25.03;98030.56;5050824;28;19939;-90
2023/06/16 04:07:13;;;;;;;;;;;;;;;30.06;25.35;98030.44;5044996;28;19928;-90
2023/06/16 04:09:39;;;;;;;;;;;;;;;30.05;25.29;98028.88;5033541;28;19917;-90
2023/06/16 04:12:05;;;;;;;;;;;;;;;30.33;25.19;98026.78;5035349;28;19928;-90
2023/06/16 04:14:31;;;;;;;;;;;;;;;30.32;24.96;98019.50;5038347;28;19924;-89
2023/06/16 04:16:57;;;;;;;;;;;;;;;29.87;25.74;98021.22;5056182;28;19921;-89
2023/06/16 04:19:26;;;;;;;;;;;;;;;29.95;25.87;98022.47;5056215;28;20300;-89
2023/06/16 04:21:52;;;;;;;;;;;;;;;30.09;26.01;98032.31;5053734;28;20310;-89
2023/06/16 04:24:18;;;;;;;;;;;;;;;30.25;25.98;98023.47;5053867;28;19920;-90
2023/06/16 04:26:45;;;;;;;;;;;;;;;30.19;26.11;98028.22;5056186;28;20372;-89
2023/06/16 04:29:14;;;;;;;;;;;;;;;30.08;26.18;98027.94;5052743;28;19917;-90
2023/06/16 04:31:42;;;;;;;;;;;;;;;30.08;26.34;98020.22;5055301;28;19925;-89
2023/06/16 04:34:11;;;;;;;;;;;;;;;30.04;26.72;98011.09;5039266;28;19933;-88
2023/06/16 04:36:44;;;;;;;;;;;;;;;30.03;26.74;98023.72;5042282;28;19928;-88
2023/06/16 04:39:11;;;;;;;;;;;;;;;29.97;27.01;98024.81;5052565;28;19921;-89
2023/06/16 04:41:38;;;;;;;;;;;;;;;30.26;26.99;98013.72;5051685;28;20007;-91
2023/06/16 04:44:04;;;;;;;;;;;;;;;30.67;27.39;98021.41;5051851;28;19982;-90
2023/06/16 04:46:30;;;;;;;;;;;;;;;31.06;26.74;98021.53;5049574;28;19927;-89
2023/06/16 04:48:56;;;;;;;;;;;;;;;31.05;27.03;98017.91;5042081;28;19957;-90
2023/06/16 04:51:22;;;;;;;;;;;;;;;30.98;27.24;98023.16;5047728;28;20285;-88
2023/06/16 04:53:48;;;;;;;;;;;;;;;31.28;27.65;98021.97;5046592;28;20007;-92
2023/06/16 04:56:15;;;;;;;;;;;;;;;31.51;27.23;98024.03;5050441;28;20007;-87
2023/06/16 04:58:41;;;;;;;;;;;;;;;31.98;27.13;98029.59;5050870;28;20265;-89
2023/06/16 05:01:07;;;;;;;;;;;;;;;32.44;27.25;98023.41;5044462;28;19929;-90
2023/06/16 05:03:33;;;;;;;;;;;;;;;32.97;26.36;98020.31;5049331;28;20012;-91
2023/06/16 05:05:59;;;;;;;;;;;;;;;33.27;24.65;98019.72;5049475;28;19921;-88
2023/06/16 05:08:25;;;;;;;;;;;;;;;33.38;24.50;98025.53;5051718;28;20280;-86
2023/06/16 05:10:51;;;;;;;;;;;;;;;33.58;25.49;98026.84;5053796;28;19917;-87
2023/06/16 05:13:17;;;;;;;;;;;;;;;33.79;24.43;98028.38;5053398;28;19995;-87
2023/06/16 05:15:43;;;;;;;;;;;;;;;34.09;24.29;98021.19;5042346;28;19917;-87
2023/06/16 05:18:09;;;;;;;;;;;;;;;34.23;23.99;98025.19;5046573;28;19920;-87
2023/06/16 05:20:35;;;;;;;;;;;;;;;34.29;24.00;98028.84;5054949;28;19928;-87
2023/06/16 05:23:03;;;;;;;;;;;;;;;34.33;23.88;98023.72;5054548;28;19917;-87
2023/06/16 05:25:29;;;;;;;;;;;;;;;34.34;23.31;98025.25;5055393;28;20281;-87
2023/06/16 05:27:55;;;;;;;;;;;;;;;34.38;23.43;98026.59;5055421;28;19921;-88
2023/06/16 05:30:22;;;;;;;;;;;;;;;34.43;23.87;98034.41;5054418;28;19921;-87
2023/06/16 05:32:48;;;;;;;;;;;;;;;34.61;23.58;98042.63;5042952;28;19917;-86
2023/06/16 05:35:14;;;;;;;;;;;;;;;34.44;23.67;98036.00;5032901;28;19939;-86
2023/06/16 05:37:40;;;;;;;;;;;;;;;34.26;24.11;98035.59;5042430;28;19925;-87
2023/06/16 05:40:06;;;;;;;;;;;;;;;34.38;24.57;98038.00;5054390;28;20383;-87
2023/06/16 05:42:33;;;;;;;;;;;;;;;34.58;24.02;98029.38;5048249;28;19929;-86
2023/06/16 05:44:59;;;;;;;;;;;;;;;34.94;23.26;98027.78;5034918;28;20070;-87
2023/06/16 05:47:25;;;;;;;;;;;;;;;33.64;24.65;98030.53;5032381;28;19982;-84
2023/06/16 05:49:51;;;;;;;;;;;;;;;33.94;24.56;98032.66;5035050;28;19952;-86
2023/06/16 05:52:17;;;;;;;;;;;;;;;34.05;24.24;98032.03;5038731;28;20021;-85
2023/06/16 05:54:43;;;;;;;;;;;;;;;33.67;23.69;98027.47;5054686;28;19923;-85
2023/06/16 05:57:09;;;;;;;;;;;;;;;34.14;24.15;98029.00;5054429;28;19923;-86
2023/06/16 05:59:35;;;;;;;;;;;;;;;34.51;23.81;98024.13;5054087;28;20284;-84
2023/06/16 06:02:01;;;;;;;;;;;;;;;34.58;23.31;98020.03;5054433;28;20003;-85
2023/06/16 06:04:29;;;;;;;;;;;;;;;34.64;23.67;98023.69;5054359;28;19966;-85
2023/06/16 06:06:55;;;;;;;;;;;;;;;34.89;23.70;98019.22;5042112;28;19918;-86
2023/06/16 06:09:22;;;;;;;;;;;;;;;35.13;23.39;98016.75;5042312;28;19920;-85
2023/06/16 06:11:48;;;;;;;;;;;;;;;35.08;23.22;98021.16;5054150;28;20334;-85
2023/06/16 06:14:14;;;;;;;;;;;;;;;35.08;23.49;98026.84;5054507;28;19920;-85
2023/06/16 06:16:40;;;;;;;;;;;;;;;34.68;23.02;98032.84;5053745;28;19925;-85
2023/06/16 06:19:06;;;;;;;;;;;;;;;34.00;23.71;98024.19;5054192;28;19921;-85
2023/06/16 06:21:34;;;;;;;;;;;;;;;34.36;24.07;98026.31;5054301;28;19912;-85
2023/06/16 06:24:00;;;;;;;;;;;;;;;34.60;24.04;98029.66;5041281;28;20215;-85
2023/06/16 06:26:26;;;;;;;;;;;;;;;34.96;23.97;98030.91;5039971;28;19923;-85
2023/06/16 06:28:52;;;;;;;;;;;;;;;34.68;22.98;98032.84;5053600;28;20356;-85
2023/06/16 06:31:18;;;;;;;;;;;;;;;34.68;23.54;98036.44;5053625;28;19924;-84
2023/06/16 06:33:45;;;;;;;;;;;;;;;35.27;22.63;98025.13;5052854;28;19986;-85
2023/06/16 06:36:11;;;;;;;;;;;;;;;35.43;22.41;98023.63;5053724;28;19925;-85
2023/06/16 06:38:37;;;;;;;;;;;;;;;35.32;22.13;98020.75;5054077;28;20283;-85
2023/06/16 06:41:04;;;;;;;;;;;;;;;34.96;22.85;98021.59;5048641;28;20443;-85
2023/06/16 06:43:30;;;;;;;;;;;;;;;35.12;23.06;98023.78;5050888;28;19924;-85
2023/06/16 06:45:56;;;;;;;;;;;;;;;35.35;23.46;98026.22;5053766;28;20007;-86
2023/06/16 06:48:22;;;;;;;;;;;;;;;35.49;22.53;98021.59;5053725;28;19917;-85
2023/06/16 06:50:49;;;;;;;;;;;;;;;35.52;22.98;98032.03;5049846;28;20711;-86
2023/06/16 06:53:15;;;;;;;;;;;;;;;35.70;22.32;98028.69;5041267;28;20351;-85
2023/06/16 06:55:41;;;;;;;;;;;;;;;35.77;22.03;98030.28;5033771;28;19963;-85
2023/06/16 06:58:07;;;;;;;;;;;;;;;34.98;23.09;98031.19;5036426;28;19975;-85
2023/06/16 07:00:33;;;;;;;;;;;;;;;34.42;23.47;98032.09;5033686;28;19921;-85
2023/06/16 07:02:59;;;;;;;;;;;;;;;34.54;23.62;98045.94;5033642;28;19926;-85
2023/06/16 07:05:25;;;;;;;;;;;;;;;34.89;23.38;98042.81;5033624;28;19917;-85
2023/06/16 07:07:51;;;;;;;;;;;;;;;35.20;23.29;98033.41;5048261;28;19975;-85
2023/06/16 07:10:17;;;;;;;;;;;;;;;35.27;22.83;98041.47;5053375;28;19917;-85
2023/06/16 07:12:43;;;;;;;;;;;;;;;35.59;23.28;98042.16;5053165;28;19923;-86
2023/06/16 07:15:10;;;;;;;;;;;;;;;36.03;22.89;98030.88;5038963;28;20327;-85
2023/06/16 07:17:36;;;;;;;;;;;;;;;36.31;21.97;98028.03;5045674;28;19921;-85
2023/06/16 07:20:04;;;;;;;;;;;;;;;36.37;21.56;98031.66;5053441;28;19979;-85
2023/06/16 07:22:30;;;;;;;;;;;;;;;36.61;22.22;98020.50;5053344;28;19921;-86
2023/06/16 07:24:56;;;;;;;;;;;;;;;36.67;21.85;98018.41;5053321;28;20295;-85
2023/06/16 07:27:22;;;;;;;;;;;;;;;36.50;21.41;98023.38;5053259;28;19924;-85
2023/06/16 07:29:48;;;;;;;;;;;;;;;36.32;21.96;98021.00;5052942;28;19921;-85
2023/06/16 07:32:14;;;;;;;;;;;;;;;36.28;20.90;98024.13;5046190;28;19982;-85
2023/06/16 07:34:41;;;;;;;;;;;;;;;36.27;22.39;98018.94;5052979;28;19929;-84
2023/06/16 07:37:07;;;;;;;;;;;;;;;36.47;21.80;98028.06;5052936;28;20280;-86
2023/06/16 07:39:33;;;;;;;;;;;;;;;36.35;22.80;98026.47;5049765;28;20047;-85
2023/06/16 07:41:59;;;;;;;;;;;;;;;36.74;21.75;98026.44;5044545;28;19928;-85
2023/06/16 07:44:25;;;;;;;;;;;;;;;36.54;21.43;98021.03;5053227;28;19920;-85
2023/06/16 07:46:51;;;;;;;;;;;;;;;36.78;22.39;98024.13;5056550;28;20469;-86
2023/06/16 07:49:17;;;;;;;;;;;;;;;37.06;21.46;98024.09;5045325;28;19975;-86
2023/06/16 07:51:43;;;;;;;;;;;;;;;37.02;21.65;98026.41;5048693;28;19921;-86
2023/06/16 07:54:11;;;;;;;;;;;;;;;37.17;21.75;98021.97;5056644;28;19971;-87
2023/06/16 07:56:38;;;;;;;;;;;;;;;37.21;20.94;98013.88;5056270;28;19917;-86
2023/06/16 07:59:04;;;;;;;;;;;;;;;36.81;21.60;98014.47;5056788;28;20269;-86
2023/06/16 08:01:30;;;;;;;;;;;;;;;37.15;21.79;98010.25;5056778;28;19924;-85
2023/06/16 08:03:56;;;;;;;;;;;;;;;36.88;22.13;98025.38;5056621;28;19983;-85
2023/06/16 08:06:23;;;;;;;;;;;;;;;36.42;21.96;98025.94;5046133;28;19921;-86
2023/06/16 08:08:49;;;;;;;;;;;;;;;36.71;21.46;98016.06;5056629;28;19916;-86
2023/06/16 08:11:15;;;;;;;;;;;;;;;36.37;21.97;98014.50;5056140;28;19939;-85
2023/06/16 08:13:41;;;;;;;;;;;;;;;36.38;21.65;98022.56;5056390;28;20364;-86
2023/06/16 08:16:07;;;;;;;;;;;;;;;34.47;22.40;98017.09;5056374;28;19928;-86
2023/06/16 08:18:33;;;;;;;;;;;;;;;33.04;25.04;98017.09;5056523;28;19917;-85
2023/06/16 08:20:59;;;;;;;;;;;;;;;32.07;25.72;98015.28;5056451;28;19916;-86
2023/06/16 08:23:25;;;;;;;;;;;;;;;32.71;24.57;98006.78;5039870;28;20004;-87
2023/06/16 08:25:53;;;;;;;;;;;;;;;33.54;24.38;98012.03;5042020;28;20649;-88
2023/06/16 08:28:19;;;;;;;;;;;;;;;34.58;22.71;98011.50;5056233;28;19971;-86
2023/06/16 08:30:45;;;;;;;;;;;;;;;35.26;22.63;98002.81;5056024;28;20345;-85
2023/06/16 08:33:11;;;;;;;;;;;;;;;33.92;24.24;98012.44;5055412;28;19960;-85
2023/06/16 08:35:37;;;;;;;;;;;;;;;34.03;23.39;98008.94;5054800;28;19927;-86
2023/06/16 08:38:03;;;;;;;;;;;;;;;32.78;24.95;98007.63;5054636;28;19970;-86
2023/06/16 08:40:30;;;;;;;;;;;;;;;34.35;23.24;98007.66;5038183;28;19921;-87
2023/06/16 08:42:56;;;;;;;;;;;;;;;34.88;23.11;97991.97;5055975;28;19921;-86
2023/06/16 08:45:23;;;;;;;;;;;;;;;34.91;22.37;97996.66;5055945;28;19923;-85
2023/06/16 08:47:50;;;;;;;;;;;;;;;35.48;21.62;98002.88;5055883;28;19916;-86
2023/06/16 08:50:21;;;;;;;;;;;;;;;35.66;20.33;97990.25;5055703;28;19990;-86
2023/06/16 08:52:47;;;;;;;;;;;;;;;35.79;20.94;97996.25;5055792;28;19921;-87
2023/06/16 08:55:14;;;;;;;;;;;;;;;34.76;23.17;97991.13;5055579;28;19913;-88
2023/06/16 08:57:43;;;;;;;;;;;;;;;34.82;23.88;97996.88;5036021;28;20380;-86
2023/06/16 09:00:10;;;;;;;;;;;;;;;35.93;22.15;97984.56;5035654;28;20327;-88
2023/06/16 09:02:36;;;;;;;;;;;;;;;35.15;21.75;97985.66;5053542;28;19970;-87
2023/06/16 09:05:05;;;;;;;;;;;;;;;34.97;22.54;97986.03;5055603;28;19921;-86
2023/06/16 09:07:32;;;;;;;;;;;;;;;35.36;21.47;97981.28;5055789;28;19917;-87
2023/06/16 09:09:58;;;;;;;;;;;;;;;36.30;21.92;97986.41;5051108;28;19920;-85
2023/06/16 09:12:24;;;;;;;;;;;;;;;35.74;21.80;97985.56;5050166;28;19964;-87
2023/06/16 09:14:51;;;;;;;;;;;;;;;36.60;20.64;97985.38;5047873;28;20380;-86
2023/06/16 09:17:21;;;;;;;;;;;;;;;37.32;20.35;97979.44;5054853;28;20060;-86
2023/06/16 09:19:47;;;;;;;;;;;;;;;36.71;21.94;97984.59;5053169;28;19921;-87
2023/06/16 09:22:18;;;;;;;;;;;;;;;36.04;20.58;97973.16;5048427;28;19921;-88
2023/06/16 09:24:45;;;;;;;;;;;;;;;36.12;21.31;97979.16;5055417;28;19994;-87
2023/06/16 09:27:12;;;;;;;;;;;;;;;35.84;21.89;97973.41;5054770;28;19929;-87
2023/06/16 09:29:38;;;;;;;;;;;;;;;35.94;21.69;97971.81;5053369;28;19917;-87
2023/06/16 09:32:08;;;;;;;;;;;;;;;34.62;22.24;97981.44;5054673;28;20028;-87
2023/06/16 09:34:35;;;;;;;;;;;;;;;34.86;21.54;97974.56;5054868;28;19932;-86
2023/06/16 09:37:04;;;;;;;;;;;;;;;35.13;21.84;97969.00;5051697;28;19971;-86
2023/06/16 09:39:30;;;;;;;;;;;;;;;35.23;21.24;97975.28;5048093;28;19921;-87
2023/06/16 09:41:57;;;;;;;;;;;;;;;35.81;20.82;97968.72;5054856;28;19923;-87
2023/06/16 09:44:25;;;;;;;;;;;;;;;35.17;21.06;97972.41;5054963;28;19969;-87
2023/06/16 09:46:51;;;;;;;;;;;;;;;35.40;22.27;97961.84;5050991;28;19913;-88
2023/06/16 09:49:21;;;;;;;;;;;;;;;35.89;21.62;97958.34;5051500;28;19928;-86
2023/06/16 09:51:55;;;;;;;;;;;;;;;36.95;21.57;97949.66;5044668;28;20267;-86
2023/06/16 09:54:21;;;;;;;;;;;;;;;37.89;18.91;97946.34;5044011;28;19924;-87
2023/06/16 09:56:48;;;;;;;;;;;;;;;37.84;19.60;97950.00;5050353;28;19923;-87
2023/06/16 09:59:15;;;;;;;;;;;;;;;36.23;20.17;97946.91;5054192;28;20011;-85
2023/06/16 10:01:43;;;;;;;;;;;;;;;35.61;19.35;97948.94;5054192;28;20431;-87
2023/06/16 10:04:10;;;;;;;;;;;;;;;35.17;22.48;97945.94;5045047;28;19925;-88
2023/06/16 10:06:55;;;;;;;;;;;;;;;34.95;21.58;97949.47;5052067;28;19925;-86
2023/06/16 10:09:26;;;;;;;;;;;;;;;35.29;20.67;97942.59;5053780;28;19967;-87
2023/06/16 10:11:52;;;;;;;;;;;;;;;35.65;20.09;97934.41;5052251;28;19920;-87
2023/06/16 10:14:18;;;;;;;;;;;;;;;35.37;21.70;97945.75;5051448;28;20291;-87
2023/06/16 10:16:47;;;;;;;;;;;;;;;35.58;21.65;97941.41;5052972;28;20380;-87
2023/06/16 10:19:13;;;;;;;;;;;;;;;35.20;20.81;97939.19;5054029;28;19920;-87
2023/06/16 10:21:40;;;;;;;;;;;;;;;34.63;21.36;97936.59;5043262;28;19917;-87
2023/06/16 10:24:07;;;;;;;;;;;;;;;35.00;21.67;97930.78;5041750;28;20015;-87
2023/06/16 10:26:34;;;;;;;;;;;;;;;36.29;21.03;97925.63;5053296;28;19916;-87
2023/06/16 10:29:00;;;;;;;;;;;;;;;36.13;20.61;97926.38;5054208;28;19917;-87
2023/06/16 10:31:28;;;;;;;;;;;;;;;35.62;21.12;97941.13;5053830;28;19925;-86
2023/06/16 10:33:55;;;;;;;;;;;;;;;35.70;20.39;97931.56;5053254;28;20454;-87
2023/06/16 10:36:31;;;;;;;;;;;;;;;35.86;21.21;97930.78;5051940;28;19921;-87
2023/06/16 10:39:01;;;;;;;;;;;;;;;35.04;22.13;97925.66;5045746;28;20460;-86
2023/06/16 10:41:31;;;;;;;;;;;;;;;35.23;22.88;97923.91;5050914;28;19921;-86
2023/06/16 10:44:20;;;;;;;;;;;;;;;35.92;21.26;97923.00;5047872;28;19966;-85
2023/06/16 10:47:06;;;;;;;;;;;;;;;36.07;21.68;97919.91;5048604;28;19925;-85
2023/06/16 10:49:43;;;;;;;;;;;;;;;36.40;21.08;97907.63;5052200;28;20007;-85
2023/06/16 10:52:09;;;;;;;;;;;;;;;36.85;19.77;97916.91;5053074;28;19925;-86
2023/06/16 10:54:48;;;;;;;;;;;;;;;36.76;20.34;97917.19;5051980;28;19993;-85
2023/06/16 10:57:14;;;;;;;;;;;;;;;35.92;20.24;97916.47;5033616;28;20017;-87
2023/06/16 10:59:56;;;;;;;;;;;;;;;36.08;21.01;97914.97;5049994;28;19925;-86
2023/06/16 11:02:24;;;;;;;;;;;;;;;36.34;20.32;97906.88;5052863;28;19921;-85
2023/06/16 11:05:18;;;;;;;;;;;;;;;36.77;20.13;97907.28;5041443;28;19925;-86
2023/06/16 11:07:47;;;;;;;;;;;;;;;35.82;21.87;97913.13;5047908;28;20011;-87
2023/06/16 11:10:18;;;;;;;;;;;;;;;35.68;20.63;97913.38;5052198;28;20011;-86
2023/06/16 11:12:45;;;;;;;;;;;;;;;35.72;20.04;97914.69;5041956;28;19917;-85
2023/06/16 11:15:11;;;;;;;;;;;;;;;36.63;18.76;97903.44;5044024;28;19921;-85
2023/06/16 11:17:37;;;;;;;;;;;;;;;36.09;19.94;97903.00;5048189;28;19967;-84
2023/06/16 11:20:06;;;;;;;;;;;;;;;36.38;19.87;97899.59;5046993;28;19980;-84
2023/06/16 11:22:36;;;;;;;;;;;;;;;36.08;21.12;97905.06;5041692;28;19928;-83
2023/06/16 11:25:03;;;;;;;;;;;;;;;35.66;22.26;97905.31;5042879;28;19921;-83
2023/06/16 11:27:30;;;;;;;;;;;;;;;34.80;22.00;97900.34;5049199;28;19925;-85
2023/06/16 11:29:57;;;;;;;;;;;;;;;35.87;21.88;97891.56;5044690;28;19925;-83
2023/06/16 11:32:24;;;;;;;;;;;;;;;35.91;22.12;97900.66;5037607;28;19960;-84
2023/06/16 11:34:51;;;;;;;;;;;;;;;35.12;21.60;97895.31;5045039;28;20024;-83
2023/06/16 11:37:17;;;;;;;;;;;;;;;35.77;20.45;97898.84;5054624;28;19943;-85
2023/06/16 11:39:43;;;;;;;;;;;;;;;36.28;20.32;97889.72;5046363;28;20285;-85
2023/06/16 11:42:13;;;;;;;;;;;;;;;35.19;21.93;97883.41;5040332;28;20450;-82
2023/06/16 11:44:39;;;;;;;;;;;;;;;35.31;21.28;97885.00;5055294;28;19920;-86
2023/06/16 11:47:05;;;;;;;;;;;;;;;35.29;21.54;97876.16;5051422;28;19944;-89
2023/06/16 11:49:36;;;;;;;;;;;;;;;35.16;22.47;97875.88;5047334;28;19921;-88
2023/06/16 11:52:05;;;;;;;;;;;;;;;34.12;22.52;97874.81;5047172;28;19922;-88
2023/06/16 11:54:34;;;;;;;;;;;;;;;35.02;21.87;97882.56;5044796;28;19928;-89
2023/06/16 11:57:00;;;;;;;;;;;;;;;34.14;22.44;97874.31;5045421;28;19921;-87
2023/06/16 11:59:30;;;;;;;;;;;;;;;35.32;21.40;97875.13;5053895;28;19924;-87
2023/06/16 12:01:57;;;;;;;;;;;;;;;35.39;22.29;97868.91;5039986;28;19948;-86
2023/06/16 12:04:25;;;;;;;;;;;;;;;36.79;20.76;97871.13;5047969;28;19928;-85
2023/06/16 12:06:52;;;;;;;;;;;;;;;36.85;19.32;97879.69;5037073;28;19921;-88
2023/06/16 12:09:19;;;;;;;;;;;;;;;36.88;20.25;97876.53;5051246;28;19913;-87
2023/06/16 12:11:46;;;;;;;;;;;;;;;35.90;20.76;97881.94;5054798;28;19939;-88
2023/06/16 12:14:20;;;;;;;;;;;;;;;36.28;21.44;97874.66;5047643;28;19917;-86
2023/06/16 12:16:50;;;;;;;;;;;;;;;36.34;20.58;97872.56;5050945;28;19988;-84
2023/06/16 12:19:18;;;;;;;;;;;;;;;36.96;20.83;97871.88;5037003;28;19944;-84
2023/06/16 12:21:48;;;;;;;;;;;;;;;37.44;20.42;97871.34;5039678;28;19917;-84
2023/06/16 12:24:14;;;;;;;;;;;;;;;37.94;20.87;97870.97;5049397;28;19927;-83
2023/06/16 12:26:41;;;;;;;;;;;;;;;37.74;19.35;97866.41;5043154;28;19921;-84
2023/06/16 12:29:10;;;;;;;;;;;;;;;36.56;21.49;97872.50;5036310;28;19921;-83
2023/06/16 12:31:48;;;;;;;;;;;;;;;37.33;19.00;97869.31;5035109;28;20454;-84
2023/06/16 12:34:28;;;;;;;;;;;;;;;36.97;20.50;97872.66;5041511;28;19924;-82
2023/06/16 12:36:58;;;;;;;;;;;;;;;36.89;20.00;97865.88;5042431;28;20380;-87
2023/06/16 12:39:24;;;;;;;;;;;;;;;37.08;19.59;97866.84;5048442;28;19928;-88
2023/06/16 12:41:54;;;;;;;;;;;;;;;37.34;18.94;97862.25;5052418;28;19921;-86
2023/06/16 12:44:20;;;;;;;;;;;;;;;37.98;18.45;97862.84;5052615;28;19929;-87
2023/06/16 12:46:46;;;;;;;;;;;;;;;38.01;18.56;97859.69;5055990;28;20338;-86
2023/06/16 12:49:12;;;;;;;;;;;;;;;37.87;19.64;97858.00;5055822;28;19920;-86